Time;durP1;ratioP1;P1;durP2;ratioP2;P2;SDS_P1;SDS_P2;PMS_P1;PMS_P2;Temp;Humidity;BMP_temperature;BMP_pressure;BME280_temperature;BME280_humidity;BME280_pressure;Samples;Min_cycle;Max_cycle;Signal;HPM_P1;HPM_P2
2024/03/17 00:00:06;;;;;;;;;;;;;;;7.90;100.00;100568.84;5063050;28;20383;-64
2024/03/17 00:02:31;;;;;;;;;;;;;;;7.85;100.00;100562.31;5070546;28;19924;-66
2024/03/17 00:05:09;;;;;;;;;;;;;;;7.76;100.00;100559.56;5071292;28;19932;-67
2024/03/17 00:07:37;;;;;;;;;;;;;;;7.60;100.00;100564.69;5070315;28;20015;-66
2024/03/17 00:10:03;;;;;;;;;;;;;;;7.54;100.00;100560.00;5064418;28;19983;-64
2024/03/17 00:12:28;;;;;;;;;;;;;;;7.48;100.00;100555.25;5066469;28;19931;-62
2024/03/17 00:14:54;;;;;;;;;;;;;;;7.44;100.00;100549.44;5061667;28;19941;-64
2024/03/17 00:17:20;;;;;;;;;;;;;;;7.44;100.00;100552.06;5063980;28;20410;-65
2024/03/17 00:19:46;;;;;;;;;;;;;;;7.43;100.00;100552.22;5071430;28;20261;-66
2024/03/17 00:22:13;;;;;;;;;;;;;;;7.38;100.00;100550.03;5064933;28;19966;-62
2024/03/17 00:24:39;;;;;;;;;;;;;;;7.37;100.00;100547.53;5071763;28;20380;-67
2024/03/17 00:27:06;;;;;;;;;;;;;;;7.36;100.00;100545.84;5065450;28;20011;-64
2024/03/17 00:29:32;;;;;;;;;;;;;;;7.32;100.00;100544.47;5070769;28;20320;-65
2024/03/17 00:31:57;;;;;;;;;;;;;;;7.32;100.00;100539.19;5060814;28;19932;-65
2024/03/17 00:34:23;;;;;;;;;;;;;;;7.33;100.00;100543.50;5066691;28;20025;-64
2024/03/17 00:36:48;;;;;;;;;;;;;;;7.30;100.00;100536.69;5063625;28;19924;-64
2024/03/17 00:39:16;;;;;;;;;;;;;;;7.27;100.00;100536.97;5069437;28;19925;-65
2024/03/17 00:41:42;;;;;;;;;;;;;;;7.24;100.00;100541.75;5062902;28;19978;-63
2024/03/17 00:44:07;;;;;;;;;;;;;;;7.20;100.00;100546.47;5065730;28;19920;-67
2024/03/17 00:46:33;;;;;;;;;;;;;;;7.18;100.00;100531.72;5071282;28;19936;-68
2024/03/17 00:49:00;;;;;;;;;;;;;;;7.17;100.00;100535.34;5056834;28;19966;-63
2024/03/17 00:51:25;;;;;;;;;;;;;;;7.17;100.00;100536.16;5063746;28;19924;-65
2024/03/17 00:53:50;;;;;;;;;;;;;;;7.18;100.00;100529.06;5058853;28;19942;-63
2024/03/17 00:56:16;;;;;;;;;;;;;;;7.19;100.00;100528.06;5063868;28;19931;-65
2024/03/17 00:58:41;;;;;;;;;;;;;;;7.18;100.00;100523.75;5062210;28;19920;-66
2024/03/17 01:01:06;;;;;;;;;;;;;;;7.10;100.00;100519.22;5060243;28;19924;-64
2024/03/17 01:03:32;;;;;;;;;;;;;;;7.01;100.00;100522.75;5062041;28;19920;-63
2024/03/17 01:05:57;;;;;;;;;;;;;;;6.98;100.00;100509.78;5069951;28;19929;-66
2024/03/17 01:08:22;;;;;;;;;;;;;;;7.00;100.00;100513.97;5061545;28;20007;-66
2024/03/17 01:10:51;;;;;;;;;;;;;;;7.06;100.00;100501.94;5062960;28;19925;-63
2024/03/17 01:13:17;;;;;;;;;;;;;;;7.09;100.00;100507.78;5062531;28;19927;-65
2024/03/17 01:15:43;;;;;;;;;;;;;;;7.08;100.00;100494.69;5060071;28;20315;-64
2024/03/17 01:18:08;;;;;;;;;;;;;;;7.08;100.00;100495.53;5067522;28;19921;-65
2024/03/17 01:20:41;;;;;;;;;;;;;;;7.10;100.00;100501.50;5061344;28;19925;-63
2024/03/17 01:23:06;;;;;;;;;;;;;;;7.15;100.00;100507.19;5068083;28;19952;-62
2024/03/17 01:25:38;;;;;;;;;;;;;;;7.14;100.00;100502.88;5062433;28;20013;-63
2024/03/17 01:28:04;;;;;;;;;;;;;;;7.10;100.00;100495.38;5061302;28;19935;-68
2024/03/17 01:30:29;;;;;;;;;;;;;;;7.09;100.00;100493.72;5071674;28;19931;-64
2024/03/17 01:32:54;;;;;;;;;;;;;;;7.09;100.00;100491.88;5068917;28;19920;-64
2024/03/17 01:35:20;;;;;;;;;;;;;;;7.07;100.00;100493.84;5063377;28;19931;-65
2024/03/17 01:37:45;;;;;;;;;;;;;;;6.98;100.00;100494.75;5060997;28;19920;-63
2024/03/17 01:40:11;;;;;;;;;;;;;;;6.92;100.00;100497.09;5064536;28;19931;-64
2024/03/17 01:42:37;;;;;;;;;;;;;;;6.84;100.00;100492.56;5063335;28;19974;-64
2024/03/17 01:45:29;;;;;;;;;;;;;;;6.90;100.00;100480.53;5065085;28;19932;-66
2024/03/17 01:47:58;;;;;;;;;;;;;;;6.98;100.00;100480.66;5061251;28;19933;-65
2024/03/17 01:50:31;;;;;;;;;;;;;;;7.00;100.00;100474.25;5064676;28;19924;-65
2024/03/17 01:52:59;;;;;;;;;;;;;;;7.00;100.00;100478.72;5065202;28;19931;-64
2024/03/17 01:55:25;;;;;;;;;;;;;;;6.98;100.00;100473.56;5071423;28;19927;-64
2024/03/17 01:57:51;;;;;;;;;;;;;;;7.04;100.00;100483.56;5077025;28;19996;-63
2024/03/17 02:00:17;;;;;;;;;;;;;;;7.10;100.00;100480.31;5064663;28;19921;-63
2024/03/17 02:02:42;;;;;;;;;;;;;;;7.07;100.00;100477.97;5061875;28;20012;-65
2024/03/17 02:05:08;;;;;;;;;;;;;;;7.03;100.00;100476.59;5063554;28;19925;-67
2024/03/17 02:07:33;;;;;;;;;;;;;;;7.00;100.00;100471.59;5063418;28;19924;-64
2024/03/17 02:09:59;;;;;;;;;;;;;;;7.06;100.00;100481.59;5065879;28;20084;-62
2024/03/17 02:12:25;;;;;;;;;;;;;;;7.13;100.00;100474.72;5062899;28;19924;-65
2024/03/17 02:14:50;;;;;;;;;;;;;;;7.16;100.00;100478.88;5063672;28;19924;-65
2024/03/17 02:17:15;;;;;;;;;;;;;;;7.16;100.00;100478.88;5061821;28;19920;-67
2024/03/17 02:19:41;;;;;;;;;;;;;;;7.17;100.00;100474.41;5053173;28;20016;-65
2024/03/17 02:22:13;;;;;;;;;;;;;;;7.12;100.00;100466.94;5066531;28;19964;-66
2024/03/17 02:24:39;;;;;;;;;;;;;;;7.06;100.00;100471.00;5068047;28;20346;-63
2024/03/17 02:27:04;;;;;;;;;;;;;;;7.02;100.00;100474.09;5061197;28;19979;-62
2024/03/17 02:29:29;;;;;;;;;;;;;;;6.99;100.00;100467.28;5066101;28;19920;-63
2024/03/17 02:31:55;;;;;;;;;;;;;;;7.01;100.00;100461.84;5065336;28;20016;-63
2024/03/17 02:34:20;;;;;;;;;;;;;;;7.07;100.00;100467.38;5040934;28;19960;-65
2024/03/17 02:36:46;;;;;;;;;;;;;;;7.11;100.00;100462.59;5067150;28;20014;-66
2024/03/17 02:42:10;;;;;;;;;;;;;;;7.10;100.00;100459.13;5024537;28;19956;-65
2024/03/17 02:44:36;;;;;;;;;;;;;;;7.13;100.00;100456.19;5070227;28;20368;-63
2024/03/17 02:47:04;;;;;;;;;;;;;;;7.18;100.00;100457.56;5067491;28;19921;-63
2024/03/17 02:49:36;;;;;;;;;;;;;;;7.22;100.00;100458.91;5064443;28;20429;-63
2024/03/17 02:52:02;;;;;;;;;;;;;;;7.19;100.00;100456.56;5072693;28;19965;-63
2024/03/17 02:54:27;;;;;;;;;;;;;;;7.17;100.00;100455.88;5063638;28;19924;-64
2024/03/17 02:56:52;;;;;;;;;;;;;;;7.15;100.00;100458.69;5064261;28;19925;-63
2024/03/17 02:59:18;;;;;;;;;;;;;;;7.17;100.00;100463.81;5066824;28;19932;-63
2024/03/17 03:01:44;;;;;;;;;;;;;;;7.15;100.00;100456.88;5065535;28;19948;-66
2024/03/17 03:04:10;;;;;;;;;;;;;;;7.07;100.00;100458.59;5059117;28;19925;-67
2024/03/17 03:06:35;;;;;;;;;;;;;;;7.03;100.00;100455.41;5070369;28;19991;-64
2024/03/17 03:09:00;;;;;;;;;;;;;;;7.03;100.00;100455.41;5068105;28;19960;-64
2024/03/17 03:11:26;;;;;;;;;;;;;;;7.03;100.00;100449.28;5071617;28;19921;-63
2024/03/17 03:13:51;;;;;;;;;;;;;;;7.03;100.00;100455.41;5068720;28;19982;-63
2024/03/17 03:16:18;;;;;;;;;;;;;;;7.06;100.00;100449.81;5062340;28;19925;-63
2024/03/17 03:18:44;;;;;;;;;;;;;;;7.04;100.00;100451.78;5066875;28;19951;-65
2024/03/17 03:21:09;;;;;;;;;;;;;;;6.99;100.00;100454.03;5063945;28;19921;-65
2024/03/17 03:23:37;;;;;;;;;;;;;;;7.00;100.00;100458.34;5069295;28;19924;-62
2024/03/17 03:26:03;;;;;;;;;;;;;;;7.06;100.00;100448.97;5064384;28;19930;-63
2024/03/17 03:28:30;;;;;;;;;;;;;;;7.12;100.00;100451.88;5065007;28;19924;-63
2024/03/17 03:30:55;;;;;;;;;;;;;;;7.15;100.00;100453.38;5060170;28;20005;-64
2024/03/17 03:33:21;;;;;;;;;;;;;;;7.18;100.00;100453.09;5064816;28;19974;-65
2024/03/17 03:35:46;;;;;;;;;;;;;;;7.19;100.00;100459.22;5069893;28;20367;-64
2024/03/17 03:38:13;;;;;;;;;;;;;;;7.09;100.00;100448.69;5063070;28;19927;-62
2024/03/17 03:40:39;;;;;;;;;;;;;;;7.06;100.00;100449.81;5067379;28;19924;-68
2024/03/17 03:43:04;;;;;;;;;;;;;;;7.07;100.00;100454.13;5060213;28;20070;-63
2024/03/17 03:45:30;;;;;;;;;;;;;;;7.07;100.00;100445.34;5074463;28;19946;-67
2024/03/17 03:47:55;;;;;;;;;;;;;;;7.04;100.00;100441.19;5062993;28;20384;-65
2024/03/17 03:50:21;;;;;;;;;;;;;;;7.00;100.00;100447.75;5059768;28;20018;-69
2024/03/17 03:52:47;;;;;;;;;;;;;;;6.96;100.00;100442.91;5062843;28;20024;-63
2024/03/17 03:55:15;;;;;;;;;;;;;;;6.83;100.00;100443.25;5063465;28;19920;-63
2024/03/17 03:57:41;;;;;;;;;;;;;;;6.78;100.00;100446.31;5067970;28;19921;-65
2024/03/17 04:00:13;;;;;;;;;;;;;;;6.75;100.00;100445.78;5063086;28;19921;-65
2024/03/17 04:02:39;;;;;;;;;;;;;;;6.78;100.00;100437.56;5066946;28;19983;-62
2024/03/17 04:05:04;;;;;;;;;;;;;;;6.71;100.00;100444.41;5069488;28;20396;-63
2024/03/17 04:07:30;;;;;;;;;;;;;;;6.66;100.00;100442.22;5052216;28;19946;-63
2024/03/17 04:09:55;;;;;;;;;;;;;;;6.67;100.00;100448.34;5081094;28;19987;-64
2024/03/17 04:12:20;;;;;;;;;;;;;;;6.71;100.00;100439.13;5065908;28;20417;-64
2024/03/17 04:14:46;;;;;;;;;;;;;;;6.77;100.00;100443.81;5060605;28;20392;-64
2024/03/17 04:17:12;;;;;;;;;;;;;;;6.81;100.00;100440.75;5069491;28;19932;-63
2024/03/17 04:19:37;;;;;;;;;;;;;;;6.85;100.00;100441.28;5045396;28;19921;-66
2024/03/17 04:22:02;;;;;;;;;;;;;;;6.81;100.00;100451.31;5067970;28;19943;-65
2024/03/17 04:24:28;;;;;;;;;;;;;;;6.71;100.00;100439.13;5065963;28;20395;-64
2024/03/17 04:26:53;;;;;;;;;;;;;;;6.66;100.00;100441.38;5072226;28;19928;-64
2024/03/17 04:29:20;;;;;;;;;;;;;;;6.68;100.00;100442.06;5059923;28;19921;-62
2024/03/17 04:31:48;;;;;;;;;;;;;;;6.67;100.00;100449.16;5064734;28;20409;-63
2024/03/17 04:34:14;;;;;;;;;;;;;;;6.64;100.00;100440.66;5066645;28;19935;-65
2024/03/17 04:36:40;;;;;;;;;;;;;;;6.69;100.00;100446.38;5063963;28;19924;-67
2024/03/17 04:39:08;;;;;;;;;;;;;;;6.73;100.00;100459.16;5063769;28;19931;-62
2024/03/17 04:41:33;;;;;;;;;;;;;;;6.71;100.00;100466.41;5054656;28;19971;-70
2024/03/17 04:43:58;;;;;;;;;;;;;;;6.67;100.00;100470.34;5061293;28;19924;-63
2024/03/17 04:46:24;;;;;;;;;;;;;;;6.66;100.00;100465.19;5064415;28;19927;-66
2024/03/17 04:48:49;;;;;;;;;;;;;;;6.60;100.00;100463.09;5070054;28;19924;-62
2024/03/17 04:51:16;;;;;;;;;;;;;;;6.57;100.00;100469.50;5064005;28;19956;-67
2024/03/17 04:53:41;;;;;;;;;;;;;;;6.57;100.00;100469.50;5059993;28;19925;-65
2024/03/17 04:56:07;;;;;;;;;;;;;;;6.57;100.00;100458.94;5064790;28;19983;-65
2024/03/17 04:58:32;;;;;;;;;;;;;;;6.61;100.00;100459.47;5062598;28;19963;-65
2024/03/17 05:01:02;;;;;;;;;;;;;;;6.63;100.00;100460.16;5060550;28;19925;-65
2024/03/17 05:03:28;;;;;;;;;;;;;;;6.68;100.00;100463.22;5062316;28;19947;-62
2024/03/17 05:06:03;;;;;;;;;;;;;;;6.67;100.00;100453.63;5070601;28;19925;-63
2024/03/17 05:08:32;;;;;;;;;;;;;;;6.68;100.00;100457.94;5062569;28;20379;-67
2024/03/17 05:11:01;;;;;;;;;;;;;;;6.71;100.00;100462.94;5065585;28;19931;-68
2024/03/17 05:13:29;;;;;;;;;;;;;;;6.64;100.00;100462.66;5069522;28;20001;-66
2024/03/17 05:15:54;;;;;;;;;;;;;;;6.60;100.00;100469.22;5071897;28;19927;-64
2024/03/17 05:18:22;;;;;;;;;;;;;;;6.64;100.00;100470.59;5068519;28;20344;-63
2024/03/17 05:20:47;;;;;;;;;;;;;;;6.73;100.00;100468.91;5065976;28;19978;-64
2024/03/17 05:23:13;;;;;;;;;;;;;;;6.81;100.00;100466.38;5061412;28;19928;-62
2024/03/17 05:25:39;;;;;;;;;;;;;;;6.83;100.00;100473.19;5063710;28;19978;-64
2024/03/17 05:28:04;;;;;;;;;;;;;;;6.84;100.00;100474.03;5064069;28;19963;-64
2024/03/17 05:30:30;;;;;;;;;;;;;;;6.81;100.00;100476.97;5055244;28;19921;-63
2024/03/17 05:32:55;;;;;;;;;;;;;;;6.78;100.00;100482.53;5069779;28;19920;-64
2024/03/17 05:35:21;;;;;;;;;;;;;;;6.74;100.00;100483.81;5074275;28;19962;-64
2024/03/17 05:37:46;;;;;;;;;;;;;;;6.71;100.00;100476.16;5072585;28;19975;-64
2024/03/17 05:40:14;;;;;;;;;;;;;;;6.67;100.00;100477.44;5071844;28;20338;-66
2024/03/17 05:42:45;;;;;;;;;;;;;;;6.68;100.00;100493.19;5071290;28;19924;-64
2024/03/17 05:45:11;;;;;;;;;;;;;;;6.72;100.00;100483.13;5069767;28;20019;-65
2024/03/17 05:47:41;;;;;;;;;;;;;;;6.77;100.00;100486.19;5068489;28;19931;-65
2024/03/17 05:50:06;;;;;;;;;;;;;;;6.84;100.00;100487.25;5063087;28;20299;-63
2024/03/17 05:52:32;;;;;;;;;;;;;;;6.88;100.00;100496.56;5061890;28;20028;-64
2024/03/17 05:54:57;;;;;;;;;;;;;;;6.87;100.00;100497.56;5067904;28;19977;-65
2024/03/17 05:57:24;;;;;;;;;;;;;;;6.79;100.00;100505.38;5057282;28;19920;-63
2024/03/17 05:59:49;;;;;;;;;;;;;;;6.72;100.00;100497.19;5054192;28;19955;-65
2024/03/17 06:02:15;;;;;;;;;;;;;;;6.73;100.00;100498.03;5063236;28;19920;-66
2024/03/17 06:04:41;;;;;;;;;;;;;;;6.77;100.00;100504.69;5065174;28;19936;-66
2024/03/17 06:07:06;;;;;;;;;;;;;;;6.82;100.00;100508.56;5066381;28;19920;-63
2024/03/17 06:09:32;;;;;;;;;;;;;;;6.83;100.00;100512.06;5068617;28;20380;-63
2024/03/17 06:11:57;;;;;;;;;;;;;;;6.86;100.00;100516.22;5067388;28;20011;-69
2024/03/17 06:14:22;;;;;;;;;;;;;;;6.84;100.00;100516.38;5065517;28;20600;-66
2024/03/17 06:16:48;;;;;;;;;;;;;;;6.85;100.00;100515.38;5067597;28;19931;-64
2024/03/17 06:19:13;;;;;;;;;;;;;;;6.89;100.00;100527.34;5071244;28;19947;-65
2024/03/17 06:21:39;;;;;;;;;;;;;;;6.94;100.00;100530.44;5067247;28;20035;-64
2024/03/17 06:24:06;;;;;;;;;;;;;;;6.93;100.00;100533.19;5070034;28;19981;-64
2024/03/17 06:26:33;;;;;;;;;;;;;;;6.90;100.00;100547.56;5055417;28;19932;-64
2024/03/17 06:28:59;;;;;;;;;;;;;;;6.82;100.00;100550.09;5068630;28;19924;-65
2024/03/17 06:31:25;;;;;;;;;;;;;;;6.55;100.00;100564.06;5068853;28;20520;-68
2024/03/17 06:33:50;;;;;;;;;;;;;;;6.07;100.00;100567.59;5061255;28;19925;-65
2024/03/17 06:36:17;;;;;;;;;;;;;;;5.67;100.00;100562.34;5068083;28;19947;-65
2024/03/17 06:38:42;;;;;;;;;;;;;;;5.32;100.00;100564.59;5077259;28;19924;-65
2024/03/17 06:41:09;;;;;;;;;;;;;;;5.15;100.00;100572.16;5070735;28;19934;-67
2024/03/17 06:43:34;;;;;;;;;;;;;;;4.99;100.00;100574.47;5077096;28;20022;-69
2024/03/17 06:46:00;;;;;;;;;;;;;;;4.74;100.00;100588.06;5072538;28;20025;-68
2024/03/17 06:48:26;;;;;;;;;;;;;;;4.60;100.00;100597.97;5073571;28;20022;-67
2024/03/17 06:50:52;;;;;;;;;;;;;;;4.44;100.00;100596.75;5072228;28;19974;-68
2024/03/17 06:53:18;;;;;;;;;;;;;;;4.16;100.00;100606.94;5074521;28;19971;-70
2024/03/17 06:55:45;;;;;;;;;;;;;;;3.89;100.00;100610.00;5074034;28;19944;-71
2024/03/17 06:58:11;;;;;;;;;;;;;;;3.68;100.00;100612.53;5070849;28;19975;-67
2024/03/17 07:00:36;;;;;;;;;;;;;;;3.55;100.00;100611.00;5069438;28;19921;-69
2024/03/17 07:03:02;;;;;;;;;;;;;;;3.50;100.00;100623.72;5065596;28;19931;-67
2024/03/17 07:05:29;;;;;;;;;;;;;;;3.37;100.00;100623.81;5073152;28;19983;-67
2024/03/17 07:07:55;;;;;;;;;;;;;;;3.28;100.00;100630.63;5066132;28;19931;-67
2024/03/17 07:10:20;;;;;;;;;;;;;;;3.21;100.00;100629.44;5065798;28;19921;-69
2024/03/17 07:12:46;;;;;;;;;;;;;;;3.09;100.00;100633.00;5063485;28;19928;-68
2024/03/17 07:15:11;;;;;;;;;;;;;;;2.96;100.00;100632.28;5070704;28;19921;-68
2024/03/17 07:17:37;;;;;;;;;;;;;;;2.89;100.00;100638.94;5065296;28;20415;-69
2024/03/17 07:20:03;;;;;;;;;;;;;;;2.71;100.00;100642.03;5065885;28;20272;-70
2024/03/17 07:22:29;;;;;;;;;;;;;;;2.70;100.00;100640.34;5064481;28;20026;-69
2024/03/17 07:25:00;;;;;;;;;;;;;;;2.70;100.00;100650.88;5064920;28;19963;-68
2024/03/17 07:27:27;;;;;;;;;;;;;;;2.61;100.00;100650.72;5069761;28;19924;-67
2024/03/17 07:29:53;;;;;;;;;;;;;;;2.59;100.00;100657.84;5057964;28;19929;-68
2024/03/17 07:32:18;;;;;;;;;;;;;;;2.54;100.00;100660.00;5070654;28;19930;-66
2024/03/17 07:34:43;;;;;;;;;;;;;;;2.47;100.00;100664.88;5066279;28;19934;-66
2024/03/17 07:37:09;;;;;;;;;;;;;;;2.48;100.00;100669.19;5064547;28;19968;-66
2024/03/17 07:39:34;;;;;;;;;;;;;;;2.52;100.00;100672.41;5064692;28;19947;-66
2024/03/17 07:42:01;;;;;;;;;;;;;;;2.54;100.00;100681.88;5070484;28;19956;-66
2024/03/17 07:44:28;;;;;;;;;;;;;;;2.53;100.00;100684.59;5065934;28;19928;-65
2024/03/17 07:46:56;;;;;;;;;;;;;;;2.55;100.00;100687.97;5086467;28;19959;-65
2024/03/17 07:49:24;;;;;;;;;;;;;;;2.53;100.00;100700.38;5068759;28;19924;-65
2024/03/17 07:51:49;;;;;;;;;;;;;;;2.42;100.00;100701.19;5060749;28;19924;-68
2024/03/17 07:54:15;;;;;;;;;;;;;;;2.45;100.00;100687.81;5060381;28;19924;-67
2024/03/17 07:56:40;;;;;;;;;;;;;;;2.50;100.00;100690.94;5066359;28;19928;-65
2024/03/17 07:59:11;;;;;;;;;;;;;;;2.35;100.00;100678.94;5070372;28;20458;-65
2024/03/17 08:01:37;;;;;;;;;;;;;;;2.50;100.00;100709.34;5074839;28;20394;-64
2024/03/17 08:04:03;;;;;;;;;;;;;;;2.38;100.00;100704.97;5062801;28;19921;-65
2024/03/17 08:06:29;;;;;;;;;;;;;;;2.28;100.00;100704.78;5069672;28;19925;-63
2024/03/17 08:08:54;;;;;;;;;;;;;;;2.23;100.00;100706.06;5067088;28;20064;-66
2024/03/17 08:11:20;;;;;;;;;;;;;;;2.25;100.00;100712.06;5068216;28;19932;-67
2024/03/17 08:13:45;;;;;;;;;;;;;;;2.24;100.00;100721.72;5074142;28;19966;-69
2024/03/17 08:16:11;;;;;;;;;;;;;;;2.21;100.00;100721.13;5071450;28;19928;-73
2024/03/17 08:18:36;;;;;;;;;;;;;;;2.24;100.00;100723.53;5070342;28;19927;-76
2024/03/17 08:21:06;;;;;;;;;;;;;;;2.27;100.00;100731.19;5071635;28;19920;-71
2024/03/17 08:23:37;;;;;;;;;;;;;;;2.27;100.00;100744.31;5070093;28;19995;-69
2024/03/17 08:26:03;;;;;;;;;;;;;;;2.25;100.00;100754.09;5075372;28;19953;-68
2024/03/17 08:28:28;;;;;;;;;;;;;;;2.15;100.00;100759.19;5071660;28;20398;-75
2024/03/17 08:30:55;;;;;;;;;;;;;;;2.14;100.00;100765.38;5057235;28;20027;-69
2024/03/17 08:33:22;;;;;;;;;;;;;;;2.17;100.00;100770.41;5070003;28;19924;-66
2024/03/17 08:35:57;;;;;;;;;;;;;;;2.17;100.00;100788.81;5065088;28;19921;-68
2024/03/17 08:38:24;;;;;;;;;;;;;;;2.22;100.00;100785.84;5071968;28;19931;-68
2024/03/17 08:40:50;;;;;;;;;;;;;;;2.25;100.00;100793.53;5074967;28;19920;-67
2024/03/17 08:43:15;;;;;;;;;;;;;;;2.04;100.00;100793.25;5077011;28;19959;-69
2024/03/17 08:45:41;;;;;;;;;;;;;;;1.95;100.00;100799.97;5075797;28;19925;-65
2024/03/17 08:48:06;;;;;;;;;;;;;;;1.92;100.00;100807.22;5070853;28;20346;-68
2024/03/17 08:50:34;;;;;;;;;;;;;;;1.96;100.00;100811.31;5070366;28;20399;-67
2024/03/17 08:53:00;;;;;;;;;;;;;;;2.00;100.00;100824.13;5072392;28;19921;-68
2024/03/17 08:55:27;;;;;;;;;;;;;;;1.99;100.00;100825.06;5074270;28;19924;-68
2024/03/17 08:57:53;;;;;;;;;;;;;;;2.04;100.00;100840.53;5071795;28;19920;-70
2024/03/17 09:00:18;;;;;;;;;;;;;;;2.06;100.00;100826.34;5074660;28;19921;-66
2024/03/17 09:02:43;;;;;;;;;;;;;;;2.02;100.00;100847.66;5072365;28;19928;-68
2024/03/17 09:05:09;;;;;;;;;;;;;;;1.79;100.00;100850.09;5073453;28;19924;-69
2024/03/17 09:07:34;;;;;;;;;;;;;;;1.67;100.00;100837.78;5075096;28;19925;-72
2024/03/17 09:09:59;;;;;;;;;;;;;;;1.62;100.00;100846.91;5067583;28;20383;-67
2024/03/17 09:12:28;;;;;;;;;;;;;;;1.68;100.00;100854.38;5070650;28;19925;-66
2024/03/17 09:14:54;;;;;;;;;;;;;;;1.76;100.00;100866.06;5075601;28;19924;-68
2024/03/17 09:17:20;;;;;;;;;;;;;;;1.77;100.00;100861.66;5071881;28;19920;-68
2024/03/17 09:19:47;;;;;;;;;;;;;;;1.80;100.00;100861.44;5072419;28;19921;-65
2024/03/17 09:22:13;;;;;;;;;;;;;;;1.76;100.00;100873.09;5067823;28;20403;-66
2024/03/17 09:24:38;;;;;;;;;;;;;;;1.81;100.00;100865.75;5069388;28;20991;-69
2024/03/17 09:27:05;;;;;;;;;;;;;;;1.80;100.00;100878.03;5066777;28;19928;-67
2024/03/17 09:29:30;;;;;;;;;;;;;;;1.72;100.00;100884.72;5067556;28;19924;-69
2024/03/17 09:31:55;;;;;;;;;;;;;;;1.77;100.00;100901.88;5062782;28;20036;-67
2024/03/17 09:34:22;;;;;;;;;;;;;;;1.79;100.00;100922.78;5066500;28;20376;-65
2024/03/17 09:36:48;;;;;;;;;;;;;;;1.75;100.00;100918.69;5067135;28;20362;-69
2024/03/17 09:39:14;;;;;;;;;;;;;;;1.70;100.00;100899.75;5067299;28;20512;-66
2024/03/17 09:41:40;;;;;;;;;;;;;;;1.73;100.00;100912.66;5066018;28;19936;-67
2024/03/17 09:44:05;;;;;;;;;;;;;;;1.62;100.00;100917.81;5069170;28;19921;-67
2024/03/17 09:46:31;;;;;;;;;;;;;;;1.53;100.00;100927.97;5069398;28;19928;-66
2024/03/17 09:48:57;;;;;;;;;;;;;;;1.45;100.00;100927.66;5068328;28;19925;-67
2024/03/17 09:51:24;;;;;;;;;;;;;;;1.46;100.00;100955.56;5066409;28;19971;-69
2024/03/17 09:53:49;;;;;;;;;;;;;;;1.37;100.00;100960.56;5071150;28;19924;-67
2024/03/17 09:56:18;;;;;;;;;;;;;;;1.37;100.00;100936.94;5069175;28;19925;-69
2024/03/17 09:58:47;;;;;;;;;;;;;;;1.45;100.00;100946.00;5069986;28;19996;-67
2024/03/17 10:01:12;;;;;;;;;;;;;;;1.44;100.00;100940.84;5064972;28;19924;-69
2024/03/17 10:03:45;;;;;;;;;;;;;;;1.47;100.00;100965.13;5066687;28;19942;-69
2024/03/17 10:06:14;;;;;;;;;;;;;;;1.45;100.00;100966.16;5068392;28;19931;-71
2024/03/17 10:08:46;;;;;;;;;;;;;;;1.43;100.00;100965.41;5084803;28;19944;-68
2024/03/17 10:11:12;;;;;;;;;;;;;;;1.34;100.00;100972.09;5064943;28;20048;-64
2024/03/17 10:13:38;;;;;;;;;;;;;;;1.27;100.00;100970.81;5067608;28;19946;-66
2024/03/17 10:16:04;;;;;;;;;;;;;;;1.33;100.00;100980.91;5068318;28;19928;-70
2024/03/17 10:18:29;;;;;;;;;;;;;;;1.36;100.00;100979.84;5077242;28;20448;-64
2024/03/17 10:20:56;;;;;;;;;;;;;;;1.33;100.00;100977.44;5069883;28;19925;-66
2024/03/17 10:23:23;;;;;;;;;;;;;;;1.23;100.00;100999.03;5064169;28;20323;-68
2024/03/17 10:25:49;;;;;;;;;;;;;;;1.20;100.00;101007.09;5068503;28;19924;-71
2024/03/17 10:28:16;;;;;;;;;;;;;;;1.12;100.00;101024.22;5069499;28;19931;-68
2024/03/17 10:30:42;;;;;;;;;;;;;;;1.03;100.00;101004.66;5063176;28;20295;-69
2024/03/17 10:33:22;;;;;;;;;;;;;;;1.05;100.00;101018.53;5070042;28;19920;-66
2024/03/17 10:35:47;;;;;;;;;;;;;;;1.03;100.00;101025.66;5070987;28;19921;-70
2024/03/17 10:38:13;;;;;;;;;;;;;;;1.03;100.00;101035.28;5072669;28;19970;-68
2024/03/17 10:40:39;;;;;;;;;;;;;;;1.02;100.00;101044.09;5077392;28;19966;-66
2024/03/17 10:43:05;;;;;;;;;;;;;;;1.01;100.00;101031.94;5075753;28;19929;-71
2024/03/17 10:45:35;;;;;;;;;;;;;;;1.06;100.00;101053.47;5067047;28;19928;-67
2024/03/17 10:48:01;;;;;;;;;;;;;;;1.12;100.00;101045.22;5067305;28;19937;-68
2024/03/17 10:50:30;;;;;;;;;;;;;;;1.02;100.00;101050.19;5066755;28;19921;-68
2024/03/17 10:52:58;;;;;;;;;;;;;;;1.04;100.00;101064.06;5073129;28;20446;-67
2024/03/17 10:55:24;;;;;;;;;;;;;;;0.94;100.00;101078.69;5073526;28;19928;-66
2024/03/17 10:57:55;;;;;;;;;;;;;;;0.78;100.00;101070.88;5067616;28;19925;-70
2024/03/17 11:00:24;;;;;;;;;;;;;;;0.84;100.00;101080.16;5070551;28;19928;-66
2024/03/17 11:02:55;;;;;;;;;;;;;;;0.87;100.00;101083.44;5064688;28;19942;-67
2024/03/17 11:05:24;;;;;;;;;;;;;;;0.84;100.00;101088.84;5065985;28;19985;-67
2024/03/17 11:07:54;;;;;;;;;;;;;;;0.88;100.00;101079.91;5066957;28;19928;-69
2024/03/17 11:10:28;;;;;;;;;;;;;;;0.88;100.00;101100.03;5053646;28;19924;-67
2024/03/17 11:12:53;;;;;;;;;;;;;;;0.82;100.00;101103.00;5070673;28;19920;-67
2024/03/17 11:15:19;;;;;;;;;;;;;;;0.87;100.00;101114.91;5069980;28;19932;-68
2024/03/17 11:17:47;;;;;;;;;;;;;;;0.85;100.00;101127.25;5065248;28;19924;-67
2024/03/17 11:20:19;;;;;;;;;;;;;;;0.83;100.00;101118.63;5077782;28;19955;-67
2024/03/17 11:22:44;;;;;;;;;;;;;;;0.75;100.00;101114.78;5068791;28;19967;-67
2024/03/17 11:25:25;;;;;;;;;;;;;;;0.68;100.00;101113.47;5074702;28;19931;-66
2024/03/17 11:27:53;;;;;;;;;;;;;;;0.63;100.00;101139.13;5067718;28;20020;-68
2024/03/17 11:30:38;;;;;;;;;;;;;;;0.46;100.00;101145.31;5055638;28;19975;-68
2024/03/17 11:33:03;;;;;;;;;;;;;;;0.41;100.00;101147.38;5062653;28;19971;-69
2024/03/17 11:35:29;;;;;;;;;;;;;;;0.41;100.00;101163.09;5073846;28;19924;-67
2024/03/17 11:37:55;;;;;;;;;;;;;;;0.42;100.00;101149.06;5065298;28;19924;-71
2024/03/17 11:40:26;;;;;;;;;;;;;;;0.37;100.00;101161.59;5071312;28;19947;-69
2024/03/17 11:43:05;;;;;;;;;;;;;;;0.38;100.00;101171.13;5066172;28;19921;-68
2024/03/17 11:45:31;;;;;;;;;;;;;;;0.36;100.00;101170.38;5084395;28;19927;-68
2024/03/17 11:47:57;;;;;;;;;;;;;;;0.39;100.00;101170.19;5071075;28;20039;-66
2024/03/17 11:50:23;;;;;;;;;;;;;;;0.44;100.00;101166.38;5071257;28;19924;-69
2024/03/17 11:52:57;;;;;;;;;;;;;;;0.49;100.00;101166.13;5072921;28;20018;-68
2024/03/17 11:55:22;;;;;;;;;;;;;;;0.47;100.00;101165.34;5055057;28;19920;-68
2024/03/17 11:57:55;;;;;;;;;;;;;;;0.43;100.00;101185.66;5067278;28;19948;-69
2024/03/17 12:00:25;;;;;;;;;;;;;;;0.43;100.00;101174.31;5072062;28;20421;-71
2024/03/17 12:02:51;;;;;;;;;;;;;;;0.29;100.00;101173.34;5071569;28;20014;-64
2024/03/17 12:05:16;;;;;;;;;;;;;;;0.29;100.00;101196.09;5054995;28;20017;-65
2024/03/17 12:07:42;;;;;;;;;;;;;;;0.31;100.00;101204.69;5074070;28;19928;-67
2024/03/17 12:10:10;;;;;;;;;;;;;;;0.29;100.00;101196.94;5068948;28;19921;-66
2024/03/17 12:12:35;;;;;;;;;;;;;;;0.26;100.00;101218.03;5079119;28;19928;-65
2024/03/17 12:15:02;;;;;;;;;;;;;;;0.22;100.00;101210.44;5075399;28;19967;-67
2024/03/17 12:17:28;;;;;;;;;;;;;;;0.14;100.00;101220.50;5065532;28;20371;-68
2024/03/17 12:19:55;;;;;;;;;;;;;;;0.11;100.00;101223.28;5063957;28;19924;-72
2024/03/17 12:22:21;;;;;;;;;;;;;;;-0.05;100.00;101223.28;5062765;28;19920;-66
2024/03/17 12:24:51;;;;;;;;;;;;;;;-0.03;100.00;101221.41;5070819;28;19925;-67
2024/03/17 12:27:21;;;;;;;;;;;;;;;-0.08;100.00;101224.28;5072762;28;19965;-66
2024/03/17 12:29:47;;;;;;;;;;;;;;;-0.04;100.00;101238.06;5072265;28;19964;-64
2024/03/17 12:32:17;;;;;;;;;;;;;;;-0.08;100.00;101247.00;5065047;28;19932;-71
2024/03/17 12:34:46;;;;;;;;;;;;;;;-0.10;100.00;101256.72;5064830;28;19927;-70